createdAt,value
2019-04-25T00:00:46.594Z,16.81
2019-04-25T00:03:22.204Z,16.69
2019-04-25T00:05:48.141Z,16.81
2019-04-25T00:08:14.091Z,16.81
2019-04-25T00:10:49.657Z,16.62
2019-04-25T00:13:18.715Z,16.75
2019-04-25T00:15:45.964Z,16.69
2019-04-25T00:18:12.235Z,16.81
2019-04-25T00:20:42.647Z,16.69
2019-04-25T00:23:11.771Z,16.69
2019-04-25T00:25:51.519Z,16.75
2019-04-25T00:28:17.375Z,16.69
2019-04-25T00:30:44.417Z,16.62
2019-04-25T00:33:53.621Z,16.62
2019-04-25T00:36:19.577Z,16.56
2019-04-25T00:38:47.824Z,16.56
2019-04-25T00:41:13.285Z,16.56
2019-04-25T00:43:39.122Z,16.62
2019-04-25T00:46:05.019Z,16.56
2019-04-25T00:48:31.682Z,16.56
2019-04-25T00:50:57.739Z,16.56
2019-04-25T00:53:23.575Z,16.62
2019-04-25T00:55:51.619Z,16.44
2019-04-25T00:58:19.358Z,16.37
2019-04-25T01:00:53.375Z,16.37
2019-04-25T01:03:22.058Z,16.37
2019-04-25T01:05:47.925Z,16.44
2019-04-25T01:08:13.776Z,16.44
2019-04-25T01:10:39.613Z,16.37
2019-04-25T01:13:05.649Z,16.37
2019-04-25T01:15:31.544Z,16.31
2019-04-25T01:18:16.801Z,16.37
2019-04-25T01:20:43.460Z,16.31
2019-04-25T01:23:09.475Z,16.44
2019-04-25T01:25:40.995Z,16.44
2019-04-25T01:28:03.262Z,16.37
2019-04-25T01:30:29.431Z,16.37
2019-04-25T01:32:55.466Z,16.37
2019-04-25T01:35:23.811Z,16.31
2019-04-25T01:38:06.494Z,16.37
2019-04-25T01:40:51.188Z,16.31
2019-04-25T01:43:27.892Z,16.37
2019-04-25T01:45:56.034Z,16.37
2019-04-25T01:48:23.374Z,16.31
2019-04-25T01:50:50.482Z,16.31
2019-04-25T01:53:16.482Z,16.25
2019-04-25T01:55:53.651Z,16.25
2019-04-25T01:58:10.165Z,16.44
2019-04-25T02:00:47.111Z,16.44
2019-04-25T02:03:13.519Z,16.37
2019-04-25T02:05:39.508Z,16.37
2019-04-25T02:08:06.977Z,16.44
2019-04-25T02:10:34.435Z,16.37
2019-04-25T02:13:03.811Z,16.37
2019-04-25T02:15:33.308Z,16.31
2019-04-25T02:18:00.319Z,16.19
2019-04-25T02:20:26.380Z,16.19
2019-04-25T02:22:52.324Z,16.25
2019-04-25T02:25:18.708Z,16.19
2019-04-25T02:27:44.555Z,16.25
2019-04-25T02:30:11.581Z,16.37
2019-04-25T02:32:37.538Z,16.25
2019-04-25T02:35:09.107Z,16.12
2019-04-25T02:37:34.972Z,16.25
2019-04-25T02:40:02.404Z,16.12
2019-04-25T02:42:28.326Z,16.12
2019-04-25T02:45:01.013Z,16.12
2019-04-25T02:47:30.911Z,16.06
2019-04-25T02:50:00.415Z,16.06
2019-04-25T02:52:31.002Z,15.94
2019-04-25T02:54:58.384Z,16.12
2019-04-25T02:57:25.074Z,16.06
2019-04-25T02:59:51.111Z,16.06
2019-04-25T03:02:16.950Z,16.06
2019-04-25T03:04:44.491Z,16.06
2019-04-25T03:07:11.335Z,16.12
2019-04-25T03:09:37.682Z,16.00
2019-04-25T03:12:05.826Z,16.06
2019-04-25T03:14:31.243Z,16.00
2019-04-25T03:16:58.557Z,16.00
2019-04-25T03:19:34.246Z,15.94
2019-04-25T03:22:03.767Z,15.94
2019-04-25T03:24:30.011Z,16.00
2019-04-25T03:26:55.930Z,15.94
2019-04-25T03:29:21.778Z,15.94
2019-04-25T03:31:48.415Z,15.88
2019-04-25T03:34:19.827Z,15.88
2019-04-25T03:36:43.432Z,15.81
2019-04-25T03:39:09.743Z,15.81
2019-04-25T03:41:35.677Z,15.69
2019-04-25T03:44:02.464Z,15.75
2019-04-25T03:46:28.987Z,15.94
2019-04-25T03:48:54.814Z,15.75
2019-04-25T03:51:20.646Z,15.69
2019-04-25T03:53:46.487Z,15.69
2019-04-25T03:56:12.949Z,15.56
2019-04-25T03:58:40.086Z,15.69
2019-04-25T04:01:07.948Z,15.69
2019-04-25T04:03:33.985Z,15.50
2019-04-25T04:06:00.014Z,15.44
2019-04-25T04:08:25.974Z,15.56
2019-04-25T04:10:51.795Z,15.31
2019-04-25T04:13:17.644Z,15.44
2019-04-25T04:15:43.486Z,15.31
2019-04-25T04:18:16.250Z,15.25
2019-04-25T04:20:43.588Z,15.25
2019-04-25T04:23:14.391Z,15.25
2019-04-25T04:25:40.320Z,15.25
2019-04-25T04:28:08.096Z,15.25
2019-04-25T04:30:34.028Z,15.19
2019-04-25T04:32:59.928Z,15.25
2019-04-25T04:35:25.754Z,15.06
2019-04-25T04:37:51.602Z,15.19
2019-04-25T04:40:18.550Z,15.06
2019-04-25T04:42:44.677Z,15.13
2019-04-25T04:45:10.514Z,14.94
2019-04-25T04:47:36.477Z,15.06
2019-04-25T04:50:03.924Z,14.94
2019-04-25T04:52:30.077Z,14.94
2019-04-25T04:55:05.858Z,15.00
2019-04-25T04:57:32.046Z,15.00
2019-04-25T04:59:51.426Z,14.87
2019-04-25T05:02:35.793Z,15.06
2019-04-25T05:05:09.346Z,14.94
2019-04-25T05:07:46.127Z,14.94
2019-04-25T05:10:14.327Z,14.81
2019-04-25T05:12:40.012Z,14.81
2019-04-25T05:15:06.667Z,14.87
2019-04-25T05:17:34.162Z,14.87
2019-04-25T05:20:00.278Z,14.87
2019-04-25T05:22:26.118Z,14.75
2019-04-25T05:24:53.443Z,14.87
2019-04-25T05:27:32.256Z,14.81
2019-04-25T05:29:47.277Z,14.94
2019-04-25T05:32:15.430Z,14.87
2019-04-25T05:34:40.875Z,14.94
2019-04-25T05:37:08.372Z,14.94
2019-04-25T05:39:34.210Z,14.81
2019-04-25T05:42:01.971Z,14.81
2019-04-25T05:44:27.811Z,14.81
2019-04-25T05:46:54.090Z,14.94
2019-04-25T05:49:20.036Z,14.87
2019-04-25T05:51:45.895Z,14.94
2019-04-25T05:54:11.739Z,15.06
2019-04-25T05:56:37.599Z,15.00
2019-04-25T05:59:05.493Z,15.00
2019-04-25T06:01:31.189Z,15.13
2019-04-25T06:03:57.027Z,15.38
2019-04-25T06:06:23.676Z,15.31
2019-04-25T06:08:54.202Z,15.31
2019-04-25T06:11:23.917Z,15.50
2019-04-25T06:13:54.399Z,15.56
2019-04-25T06:16:23.992Z,15.69
2019-04-25T06:18:54.906Z,15.75
2019-04-25T06:21:21.425Z,15.69
2019-04-25T06:24:05.636Z,15.81
2019-04-25T06:26:39.445Z,15.88
2019-04-25T06:29:01.427Z,15.88
2019-04-25T06:31:29.205Z,15.94
2019-04-25T06:33:55.203Z,16.06
2019-04-25T06:36:21.176Z,16.06
2019-04-25T06:38:48.404Z,16.12
2019-04-25T06:41:14.274Z,16.12
2019-04-25T06:43:42.032Z,16.12
2019-04-25T06:46:14.079Z,16.25
2019-04-25T06:48:45.574Z,16.31
2019-04-25T06:51:13.415Z,16.06
2019-04-25T06:53:39.493Z,16.06
2019-04-25T06:56:05.424Z,16.12
2019-04-25T06:58:32.310Z,16.06
2019-04-25T07:01:01.063Z,16.19
2019-04-25T07:03:27.180Z,16.37
2019-04-25T07:05:53.567Z,16.31
2019-04-25T07:08:19.538Z,16.25
2019-04-25T07:10:45.396Z,16.31
2019-04-25T07:13:14.255Z,16.25
2019-04-25T07:15:40.635Z,16.12
2019-04-25T07:18:06.563Z,16.25
2019-04-25T07:20:34.242Z,16.44
2019-04-25T07:23:00.138Z,16.56
2019-04-25T07:25:28.578Z,16.69
2019-04-25T07:28:03.399Z,16.75
2019-04-25T07:30:41.845Z,16.94
2019-04-25T07:33:00.930Z,17.00
2019-04-25T07:35:26.786Z,17.06
2019-04-25T07:37:53.928Z,16.94
2019-04-25T07:40:20.466Z,17.00
2019-04-25T07:42:46.448Z,17.00
2019-04-25T07:45:15.255Z,17.06
2019-04-25T07:47:41.202Z,17.00
2019-04-25T07:50:07.862Z,16.94
2019-04-25T07:52:34.855Z,17.00
2019-04-25T07:55:01.554Z,17.19
2019-04-25T07:57:27.933Z,17.12
2019-04-25T07:59:54.077Z,17.31
2019-04-25T08:02:19.980Z,17.19
2019-04-25T08:04:45.936Z,17.25
2019-04-25T08:07:11.944Z,17.25
2019-04-25T08:09:38.033Z,17.19
2019-04-25T08:12:04.098Z,17.31
2019-04-25T08:14:32.417Z,17.37
2019-04-25T08:17:03.679Z,17.31
2019-04-25T08:19:30.980Z,17.44
2019-04-25T08:21:57.156Z,17.44
2019-04-25T08:24:24.018Z,17.44
2019-04-25T08:26:50.324Z,17.62
2019-04-25T08:29:17.929Z,17.62
2019-04-25T08:31:45.198Z,17.62
2019-04-25T08:34:11.328Z,17.75
2019-04-25T08:36:38.641Z,17.94
2019-04-25T08:39:07.413Z,17.94
2019-04-25T08:41:34.853Z,18.00
2019-04-25T08:44:01.117Z,18.06
2019-04-25T08:46:27.082Z,18.25
2019-04-25T08:49:06.203Z,18.44
2019-04-25T08:51:36.286Z,18.56
2019-04-25T08:54:04.066Z,18.56
2019-04-25T08:56:32.523Z,18.50
2019-04-25T08:59:07.348Z,18.19
2019-04-25T09:01:34.898Z,18.25
2019-04-25T09:04:10.257Z,18.44
2019-04-25T09:06:37.266Z,18.37
2019-04-25T09:09:07.164Z,18.44
2019-04-25T09:11:34.832Z,18.56
2019-04-25T09:14:00.888Z,18.62
2019-04-25T09:16:26.794Z,18.87
2019-04-25T09:18:53.953Z,18.81
2019-04-25T09:21:20.008Z,18.94
2019-04-25T09:23:45.860Z,18.94
2019-04-25T09:26:11.710Z,18.94
2019-04-25T09:28:38.959Z,19.00
2019-04-25T09:31:05.339Z,18.94
2019-04-25T09:33:31.221Z,19.06
2019-04-25T09:35:57.143Z,19.12
2019-04-25T09:38:24.414Z,19.19
2019-04-25T09:40:50.409Z,19.25
2019-04-25T09:43:16.298Z,19.31
2019-04-25T09:45:53.350Z,19.44
2019-04-25T09:48:35.391Z,19.44
2019-04-25T09:51:03.549Z,19.56
2019-04-25T09:53:30.441Z,19.50
2019-04-25T09:56:04.688Z,19.69
2019-04-25T09:58:44.010Z,19.81
2019-04-25T10:01:13.774Z,19.81
2019-04-25T10:03:40.871Z,19.87
2019-04-25T10:06:06.970Z,19.81
2019-04-25T10:08:34.329Z,19.94
2019-04-25T10:11:00.395Z,19.94
2019-04-25T10:13:26.258Z,20.06
2019-04-25T10:16:04.322Z,20.12
2019-04-25T10:18:31.110Z,20.19
2019-04-25T10:20:56.977Z,20.37
2019-04-25T10:23:24.075Z,20.37
2019-04-25T10:25:50.246Z,20.31
2019-04-25T10:28:16.236Z,20.31
2019-04-25T10:30:42.955Z,20.31
2019-04-25T10:33:09.175Z,20.37
2019-04-25T10:35:46.705Z,20.37
2019-04-25T10:38:03.533Z,20.44
2019-04-25T10:40:29.805Z,20.56
2019-04-25T10:42:55.995Z,20.75
2019-04-25T10:45:24.278Z,20.81
2019-04-25T10:47:49.755Z,20.88
2019-04-25T10:50:15.741Z,20.94
2019-04-25T10:52:41.885Z,21.00
2019-04-25T10:55:08.165Z,21.06
2019-04-25T10:57:34.111Z,21.12
2019-04-25T11:00:06.519Z,21.00
2019-04-25T11:02:27.829Z,21.00
2019-04-25T11:04:56.131Z,21.12
2019-04-25T11:07:23.461Z,21.12
2019-04-25T11:09:49.589Z,21.19
2019-04-25T11:12:15.950Z,21.19
2019-04-25T11:14:42.215Z,21.19
2019-04-25T11:17:08.170Z,21.25
2019-04-25T11:19:35.829Z,21.25
2019-04-25T11:22:03.983Z,21.19
2019-04-25T11:24:30.154Z,21.19
2019-04-25T11:26:56.094Z,21.31
2019-04-25T11:29:23.788Z,21.31
2019-04-25T11:31:50.924Z,21.62
2019-04-25T11:34:16.922Z,21.44
2019-04-25T11:36:43.941Z,21.56
2019-04-25T11:39:15.238Z,21.56
2019-04-25T11:41:43.243Z,21.56
2019-04-25T11:44:10.095Z,21.62
2019-04-25T11:46:36.106Z,21.87
2019-04-25T11:49:02.063Z,21.56
2019-04-25T11:51:27.948Z,21.56
2019-04-25T11:53:54.584Z,21.56
2019-04-25T11:56:21.467Z,21.56
2019-04-25T11:58:48.101Z,21.56
2019-04-25T12:01:16.543Z,21.56
2019-04-25T12:03:45.087Z,21.62
2019-04-25T12:06:11.281Z,21.62
2019-04-25T12:08:37.416Z,21.69
2019-04-25T12:11:03.553Z,21.75
2019-04-25T12:13:29.486Z,21.81
2019-04-25T12:15:55.737Z,21.87
2019-04-25T12:18:21.884Z,21.81
2019-04-25T12:20:48.709Z,21.87
2019-04-25T12:23:14.793Z,21.94
2019-04-25T12:25:40.646Z,21.81
2019-04-25T12:28:06.494Z,21.87
2019-04-25T12:30:38.319Z,21.94
2019-04-25T12:33:00.206Z,22.00
2019-04-25T12:35:26.191Z,22.19
2019-04-25T12:37:53.626Z,22.44
2019-04-25T12:40:19.907Z,22.25
2019-04-25T12:42:46.404Z,22.25
2019-04-25T12:45:14.419Z,22.25
2019-04-25T12:47:45.335Z,22.37
2019-04-25T12:50:14.259Z,22.25
2019-04-25T12:52:40.242Z,22.37
2019-04-25T12:55:06.497Z,22.37
2019-04-25T12:57:32.376Z,22.44
2019-04-25T12:59:58.214Z,22.37
2019-04-25T13:02:24.067Z,22.37
2019-04-25T13:04:50.478Z,22.50
2019-04-25T13:07:16.497Z,22.44
2019-04-25T13:09:42.564Z,22.44
2019-04-25T13:12:08.531Z,22.50
2019-04-25T13:14:34.452Z,22.56
2019-04-25T13:17:00.280Z,22.56
2019-04-25T13:19:26.559Z,22.56
2019-04-25T13:21:54.268Z,22.62
2019-04-25T13:24:20.234Z,22.56
2019-04-25T13:26:50.954Z,22.62
2019-04-25T13:29:35.445Z,22.81
2019-04-25T13:32:19.654Z,22.75
2019-04-25T13:34:47.535Z,22.75
2019-04-25T13:37:14.114Z,22.81
2019-04-25T13:39:44.066Z,22.87
2019-04-25T13:42:10.367Z,22.81
2019-04-25T13:44:36.232Z,22.87
2019-04-25T13:47:03.677Z,22.94
2019-04-25T13:49:29.932Z,23.31
2019-04-25T13:51:55.784Z,23.00
2019-04-25T13:54:22.242Z,23.12
2019-04-25T13:56:49.485Z,23.25
2019-04-25T13:59:15.463Z,23.19
2019-04-25T14:01:41.733Z,23.06
2019-04-25T14:04:08.095Z,23.00
2019-04-25T14:06:34.227Z,23.00
2019-04-25T14:09:01.425Z,22.94
2019-04-25T14:11:27.989Z,23.00
2019-04-25T14:13:54.026Z,23.00
2019-04-25T14:16:30.366Z,23.00
2019-04-25T14:19:16.371Z,22.87
2019-04-25T14:21:43.395Z,22.87
2019-04-25T14:24:19.856Z,22.75
2019-04-25T14:26:37.255Z,22.81
2019-04-25T14:29:04.253Z,22.87
2019-04-25T14:31:38.944Z,23.00
2019-04-25T14:33:58.128Z,22.94
2019-04-25T14:36:25.770Z,23.12
2019-04-25T14:38:51.712Z,23.12
2019-04-25T14:41:17.783Z,23.12
2019-04-25T14:43:46.287Z,23.06
2019-04-25T14:46:11.443Z,23.06
2019-04-25T14:48:37.381Z,23.00
2019-04-25T14:51:03.335Z,23.06
2019-04-25T14:53:29.173Z,23.00
2019-04-25T14:56:15.251Z,23.00
2019-04-25T14:58:43.164Z,23.00
2019-04-25T15:01:09.558Z,23.12
2019-04-25T15:03:35.515Z,23.19
2019-04-25T15:06:01.389Z,23.44
2019-04-25T15:08:27.242Z,23.38
2019-04-25T15:10:53.147Z,23.31
2019-04-25T15:13:19.722Z,23.31
2019-04-25T15:15:46.381Z,23.25
2019-04-25T15:18:12.310Z,23.25
2019-04-25T15:20:38.183Z,23.12
2019-04-25T15:23:04.043Z,23.00
2019-04-25T15:25:29.998Z,22.94
2019-04-25T15:27:55.852Z,22.87
2019-04-25T15:30:31.464Z,22.87
2019-04-25T15:32:57.625Z,23.06
2019-04-25T15:35:34.496Z,23.00
2019-04-25T15:38:02.458Z,23.00
2019-04-25T15:40:48.213Z,23.44
2019-04-25T15:43:18.957Z,23.25
2019-04-25T15:46:04.673Z,23.38
2019-04-25T15:48:31.088Z,23.38
2019-04-25T15:50:58.227Z,23.25
2019-04-25T15:53:24.077Z,23.25
2019-04-25T15:55:50.522Z,23.31
2019-04-25T15:58:16.481Z,23.12
2019-04-25T16:00:42.372Z,23.12
2019-04-25T16:03:08.443Z,23.12
2019-04-25T16:05:35.532Z,23.06
2019-04-25T16:08:01.559Z,23.12
2019-04-25T16:10:28.306Z,23.12
2019-04-25T16:12:54.266Z,23.00
2019-04-25T16:15:20.106Z,23.06
2019-04-25T16:17:46.020Z,23.12
2019-04-25T16:20:11.851Z,23.62
2019-04-25T16:22:38.628Z,23.44
2019-04-25T16:25:05.639Z,23.69
2019-04-25T16:27:32.368Z,23.50
2019-04-25T16:29:58.506Z,23.50
2019-04-25T16:32:24.520Z,23.38
2019-04-25T16:34:50.498Z,23.56
2019-04-25T16:37:16.418Z,23.38
2019-04-25T16:39:42.704Z,23.31
2019-04-25T16:42:08.651Z,23.38
2019-04-25T16:44:34.796Z,23.31
2019-04-25T16:47:00.678Z,23.31
2019-04-25T16:49:26.627Z,23.19
2019-04-25T16:51:52.512Z,23.19
2019-04-25T16:54:18.400Z,23.12
2019-04-25T16:56:44.319Z,23.12
2019-04-25T16:59:10.174Z,23.12
2019-04-25T17:01:36.112Z,23.19
2019-04-25T17:04:01.983Z,23.31
2019-04-25T17:06:29.954Z,23.56
2019-04-25T17:08:55.907Z,23.31
2019-04-25T17:11:21.758Z,23.25
2019-04-25T17:13:49.599Z,23.62
2019-04-25T17:16:20.156Z,23.38
2019-04-25T17:18:50.450Z,23.38
2019-04-25T17:21:16.511Z,23.62
2019-04-25T17:23:42.353Z,23.25
2019-04-25T17:26:10.194Z,23.12
2019-04-25T17:28:39.074Z,23.25
2019-04-25T17:31:09.844Z,23.12
2019-04-25T17:33:43.825Z,23.12
2019-04-25T17:36:11.623Z,23.00
2019-04-25T17:38:54.488Z,23.12
2019-04-25T17:41:20.432Z,22.94
2019-04-25T17:43:46.302Z,23.06
2019-04-25T17:46:14.067Z,22.94
2019-04-25T17:48:40.495Z,22.81
2019-04-25T17:51:06.688Z,22.81
2019-04-25T17:53:33.058Z,22.81
2019-04-25T17:55:59.042Z,22.81
2019-04-25T17:58:24.966Z,23.06
2019-04-25T18:00:51.036Z,23.00
2019-04-25T18:03:17.000Z,22.94
2019-04-25T18:05:43.825Z,23.12
2019-04-25T18:08:10.014Z,22.81
2019-04-25T18:10:35.808Z,22.81
2019-04-25T18:13:01.703Z,22.56
2019-04-25T18:15:41.786Z,22.56
2019-04-25T18:18:09.639Z,22.44
2019-04-25T18:20:37.420Z,22.37
2019-04-25T18:23:07.739Z,22.31
2019-04-25T18:25:44.047Z,22.25
2019-04-25T18:28:17.694Z,22.25
2019-04-25T18:30:45.509Z,22.25
2019-04-25T18:33:22.208Z,22.13
2019-04-25T18:35:49.985Z,22.06
2019-04-25T18:38:23.513Z,22.06
2019-04-25T18:40:51.438Z,21.87
2019-04-25T18:43:28.088Z,22.00
2019-04-25T18:45:55.827Z,21.81
2019-04-25T18:48:21.687Z,21.75
2019-04-25T18:50:47.609Z,21.69
2019-04-25T18:53:33.375Z,21.69
2019-04-25T18:56:16.330Z,21.75
2019-04-25T18:59:00.616Z,21.69
2019-04-25T19:01:28.471Z,21.56
2019-04-25T19:04:01.831Z,21.44
2019-04-25T19:06:27.999Z,21.37
2019-04-25T19:08:53.834Z,21.31
2019-04-25T19:11:19.702Z,21.31
2019-04-25T19:13:45.541Z,21.25
2019-04-25T19:16:11.723Z,21.19
2019-04-25T19:18:37.577Z,21.12
2019-04-25T19:21:04.766Z,21.19
2019-04-25T19:23:30.720Z,21.12
2019-04-25T19:25:56.823Z,21.00
2019-04-25T19:28:22.767Z,20.94
2019-04-25T19:30:51.381Z,20.94
2019-04-25T19:33:18.503Z,20.88
2019-04-25T19:35:44.351Z,20.81
2019-04-25T19:38:10.285Z,20.75
2019-04-25T19:40:41.264Z,20.75
2019-04-25T19:43:15.990Z,20.81
2019-04-25T19:45:42.592Z,20.81
2019-04-25T19:48:08.478Z,20.62
2019-04-25T19:50:34.338Z,20.69
2019-04-25T19:53:00.180Z,20.62
2019-04-25T19:55:26.029Z,20.69
2019-04-25T19:57:52.540Z,20.62
2019-04-25T20:00:41.608Z,20.62
2019-04-25T20:03:32.745Z,20.75
2019-04-25T20:06:36.948Z,20.69
2019-04-25T20:09:06.685Z,20.56
2019-04-25T20:11:34.440Z,20.44
2019-04-25T20:14:00.316Z,20.44
2019-04-25T20:19:00.320Z,20.37
2019-04-25T20:21:26.239Z,20.37
2019-04-25T20:23:52.174Z,20.31
2019-04-25T20:26:18.141Z,20.31
2019-04-25T20:28:44.837Z,20.31
2019-04-25T20:31:10.973Z,20.31
2019-04-25T20:33:36.935Z,20.31
2019-04-25T20:36:02.895Z,20.37
2019-04-25T20:38:28.720Z,20.31
2019-04-25T20:40:54.703Z,20.25
2019-04-25T20:43:20.664Z,20.25
2019-04-25T20:45:46.915Z,20.12
2019-04-25T20:48:14.097Z,20.19
2019-04-25T20:50:39.916Z,20.19
2019-04-25T20:53:05.792Z,20.12
2019-04-25T20:55:31.972Z,20.12
2019-04-25T20:57:57.960Z,20.12
2019-04-25T21:00:44.413Z,20.06
2019-04-25T21:03:10.414Z,20.06
2019-04-25T21:05:36.327Z,20.06
2019-04-25T21:08:02.310Z,20.06
2019-04-25T21:10:28.164Z,20.00
2019-04-25T21:12:54.079Z,20.00
2019-04-25T21:15:21.815Z,19.94
2019-04-25T21:17:58.694Z,19.87
2019-04-25T21:20:24.647Z,19.87
2019-04-25T21:22:51.763Z,19.87
2019-04-25T21:25:17.851Z,19.81
2019-04-25T21:27:43.690Z,19.81
2019-04-25T21:30:10.441Z,19.81
2019-04-25T21:32:50.510Z,19.75
2019-04-25T21:35:16.901Z,19.81
2019-04-25T21:37:42.867Z,19.75
2019-04-25T21:40:11.724Z,19.75
2019-04-25T21:42:42.736Z,19.69
2019-04-25T21:45:09.290Z,19.75
2019-04-25T21:47:35.233Z,19.69
2019-04-25T21:50:03.056Z,19.69
2019-04-25T21:52:29.443Z,19.62
2019-04-25T21:54:55.820Z,19.62
2019-04-25T21:57:22.143Z,19.56
2019-04-25T21:59:59.016Z,19.56
2019-04-25T22:02:18.121Z,19.50
2019-04-25T22:04:44.375Z,19.62
2019-04-25T22:07:10.521Z,19.50
2019-04-25T22:09:36.686Z,19.50
2019-04-25T22:12:04.144Z,19.50
2019-04-25T22:14:30.012Z,19.44
2019-04-25T22:16:56.913Z,19.44
2019-04-25T22:19:24.326Z,19.37
2019-04-25T22:21:50.590Z,19.37
2019-04-25T22:24:17.319Z,19.31
2019-04-25T22:26:44.716Z,19.31
2019-04-25T22:29:10.981Z,19.37
2019-04-25T22:31:55.564Z,19.31
2019-04-25T22:34:26.553Z,19.31
2019-04-25T22:36:52.386Z,19.31
2019-04-25T22:39:18.690Z,19.31
2019-04-25T22:41:47.195Z,19.31
2019-04-25T22:44:14.583Z,19.25
2019-04-25T22:46:41.724Z,19.25
2019-04-25T22:49:07.983Z,19.19
2019-04-25T22:51:35.670Z,19.25
2019-04-25T22:54:02.107Z,19.25
2019-04-25T22:56:29.248Z,19.19
2019-04-25T22:58:55.165Z,19.25
2019-04-25T23:01:23.310Z,19.31
2019-04-25T23:03:51.051Z,19.25
2019-04-25T23:06:17.323Z,19.25
2019-04-25T23:08:43.186Z,19.31
2019-04-25T23:11:09.123Z,19.25
2019-04-25T23:13:35.059Z,19.25
2019-04-25T23:16:02.473Z,19.25
2019-04-25T23:18:28.614Z,19.19
2019-04-25T23:20:54.568Z,19.37
2019-04-25T23:23:20.940Z,19.12
2019-04-25T23:25:54.737Z,19.12
2019-04-25T23:28:21.617Z,19.12
2019-04-25T23:31:06.533Z,19.06
2019-04-25T23:33:32.425Z,19.00
2019-04-25T23:35:58.664Z,19.00
2019-04-25T23:38:24.584Z,18.94
2019-04-25T23:40:50.532Z,18.87
2019-04-25T23:43:16.562Z,18.87
2019-04-25T23:45:42.509Z,18.87
2019-04-25T23:48:10.315Z,18.81
2019-04-25T23:50:36.484Z,18.87
2019-04-25T23:53:02.731Z,18.87
2019-04-25T23:55:29.046Z,18.81
2019-04-25T23:57:54.891Z,18.69
